FAMM/MBD METAR and TAF weather

Enter ICAO airport designator
Station Type Date Time Source
FAMM METAR 2018/10/16 14:00 UTC NOAA

FAMM 161400Z 28012KT CAVOK 31/M10 Q1018 NOSIG


Station Type Date Time Source
FAMM Decoded METAR 2018/10/16 14:00 UTC NOAA

Mafikeng Intl. Ad, South Africa (FAMM) 25-47S 025-32E 1300M
Oct 16, 2018 - 10:00 AM EDT / 2018.10.16 1400 UTC
Wind: from the W (280 degrees) at 14 MPH (12 KT):0
Visibility: greater than 7 mile(s):0
Temperature: 87 F (31 C)
Dew Point: 14 F (-10 C)
Relative Humidity: 6%
Pressure (altimeter): 30.06 in. Hg (1018 hPa)
ob: FAMM 161400Z 28012KT CAVOK 31/M10 Q1018 NOSIG
cycle: 14

Station Type Date Time Source
FAMM TAF 2018/10/05 07:00 UTC NOAA

TAF FAMM 050600Z 0507/0518 03015KT CAVOK
BECMG 0509/0511 VRB03KT TX26/0513Z TN17/0507Z


Example: see airport list